Time;durP1;ratioP1;P1;durP2;ratioP2;P2;SDS_P1;SDS_P2;PMS_P1;PMS_P2;Temp;Humidity;BMP_temperature;BMP_pressure;BME280_temperature;BME280_humidity;BME280_pressure;Samples;Min_cycle;Max_cycle;Signal;HPM_P1;HPM_P2
2022/05/19 00:00:28;;;;;;;4.70;3.90;;;;;;;9.62;80.33;100352.66;1741370;81;20978;-66
2022/05/19 00:02:54;;;;;;;4.35;4.00;;;;;;;9.63;80.31;100351.63;1753452;81;21027;-67
2022/05/19 00:05:25;;;;;;;4.80;4.12;;;;;;;9.62;80.22;100346.47;1752882;81;20951;-66
2022/05/19 00:07:51;;;;;;;5.20;3.92;;;;;;;9.63;80.14;100351.63;1724143;81;21467;-66
2022/05/19 00:10:19;;;;;;;4.22;3.83;;;;;;;9.61;80.14;100351.54;1730413;81;21032;-68
2022/05/19 00:12:47;;;;;;;5.33;3.25;;;;;;;9.58;80.18;100346.11;1746405;81;21489;-66
2022/05/19 00:15:14;;;;;;;3.98;3.60;;;;;;;9.56;80.25;100343.34;1753220;81;21566;-67
2022/05/19 00:17:40;;;;;;;5.60;4.58;;;;;;;9.54;80.40;100350.27;1704314;83;21042;-67
2022/05/19 00:20:10;;;;;;;4.10;3.70;;;;;;;9.55;80.57;100347.89;1733342;82;21628;-72
2022/05/19 00:22:37;;;;;;;4.12;3.70;;;;;;;9.54;80.65;100338.19;1723550;83;21226;-67
2022/05/19 00:25:05;;;;;;;4.37;3.98;;;;;;;9.52;80.87;100351.04;1723346;83;21150;-67
2022/05/19 00:27:32;;;;;;;9.38;4.37;;;;;;;9.49;81.02;100349.34;1724829;81;20939;-69
2022/05/19 00:29:59;;;;;;;8.10;3.50;;;;;;;9.44;81.26;100353.22;1737321;82;21132;-66
2022/05/19 00:32:27;;;;;;;4.33;3.83;;;;;;;9.40;81.60;100346.13;1737718;82;21032;-66
2022/05/19 00:34:54;;;;;;;5.35;4.28;;;;;;;9.39;81.87;100346.37;1736988;82;21233;-68
2022/05/19 00:37:21;;;;;;;5.58;3.42;;;;;;;9.37;82.17;100345.24;1745790;81;21002;-67
2022/05/19 00:39:48;;;;;;;7.33;4.25;;;;;;;9.35;82.37;100350.55;1752597;81;21500;-68
2022/05/19 00:45:01;;;;;;;4.47;4.05;;;;;;;9.29;82.64;100340.70;1740792;81;21090;-67
2022/05/19 00:47:39;;;;;;;7.25;4.90;;;;;;;9.23;82.98;100341.60;1729112;81;21828;-67
2022/05/19 00:50:30;;;;;;;4.60;4.17;;;;;;;9.19;83.15;100347.43;1750931;81;20983;-66
2022/05/19 00:53:11;;;;;;;8.10;4.05;;;;;;;9.16;83.33;100347.03;1723702;82;21527;-68
2022/05/19 00:55:42;;;;;;;5.58;4.67;;;;;;;9.13;83.41;100338.10;1724498;81;21018;-67
2022/05/19 00:58:25;;;;;;;8.20;4.97;;;;;;;9.10;83.46;100350.13;1722054;83;21059;-67
2022/05/19 01:00:51;;;;;;;7.37;5.62;;;;;;;9.06;83.58;100346.25;1724368;81;21118;-67
2022/05/19 01:03:21;;;;;;;10.75;5.17;;;;;;;9.03;83.66;100349.88;1730659;81;27236;-67
2022/05/19 01:06:01;;;;;;;9.13;5.97;;;;;;;9.01;83.86;100351.98;1724985;81;21011;-68
2022/05/19 01:08:38;;;;;;;12.37;5.85;;;;;;;9.02;83.86;100351.73;1753396;81;21086;-67
2022/05/19 01:11:05;;;;;;;10.28;6.03;;;;;;;8.99;83.85;100354.88;1741582;81;21099;-66
2022/05/19 01:13:34;;;;;;;10.23;5.87;;;;;;;8.99;83.93;100355.40;1718175;83;21098;-66
2022/05/19 01:16:00;;;;;;;10.18;6.92;;;;;;;8.96;83.93;100354.00;1729153;81;20959;-66
2022/05/19 01:18:29;;;;;;;7.35;5.62;;;;;;;8.93;83.97;100353.08;1753436;81;21066;-67
2022/05/19 01:20:56;;;;;;;14.45;6.53;;;;;;;8.91;84.17;100344.97;1748509;81;20940;-66
2022/05/19 01:23:28;;;;;;;9.18;5.83;;;;;;;8.89;84.25;100354.57;1718059;83;21689;-67
2022/05/19 01:26:17;;;;;;;10.55;5.97;;;;;;;8.88;84.35;100355.61;1726288;81;21225;-67
2022/05/19 01:28:45;;;;;;;15.35;7.97;;;;;;;8.88;84.43;100358.81;1753306;81;21056;-65
2022/05/19 01:31:34;;;;;;;14.15;7.83;;;;;;;8.85;84.38;100362.77;1752656;81;21101;-66
2022/05/19 01:34:02;;;;;;;19.05;7.92;;;;;;;8.84;84.43;100362.98;1752309;81;20912;-67
2022/05/19 01:36:30;;;;;;;17.40;6.45;;;;;;;8.78;84.65;100364.69;1741916;81;21603;-66
2022/05/19 01:39:04;;;;;;;12.98;6.72;;;;;;;8.76;84.80;100360.08;1724726;81;21915;-67
2022/05/19 01:42:07;;;;;;;15.90;7.45;;;;;;;8.74;84.91;100360.29;1738870;81;20956;-68
2022/05/19 01:44:46;;;;;;;14.68;10.10;;;;;;;8.73;85.00;100361.33;1753260;81;21090;-67
2022/05/19 01:47:24;;;;;;;15.75;7.78;;;;;;;8.71;85.12;100363.95;1748599;81;21480;-66
2022/05/19 01:50:08;;;;;;;13.85;7.45;;;;;;;8.69;85.11;100361.98;1753405;81;21063;-67
2022/05/19 01:52:52;;;;;;;11.90;6.50;;;;;;;8.65;85.21;100363.48;1782269;80;21104;-67
2022/05/19 01:55:52;;;;;;;10.75;7.58;;;;;;;8.61;85.31;100364.45;1748653;78;21039;-66
2022/05/19 01:58:24;;;;;;;9.85;6.17;;;;;;;8.60;85.34;100360.12;1775385;80;21719;-65
2022/05/19 02:00:55;;;;;;;13.13;6.70;;;;;;;8.60;85.36;100367.34;1783822;80;21054;-67
2022/05/19 02:03:45;;;;;;;8.23;6.60;;;;;;;8.60;85.30;100372.70;1757277;81;21555;-67
2022/05/19 02:06:31;;;;;;;16.42;7.15;;;;;;;8.57;85.31;100372.64;1769867;78;21094;-69
2022/05/19 02:09:20;;;;;;;9.68;6.97;;;;;;;8.54;85.36;100363.67;1820813;78;20881;-66
2022/05/19 02:11:56;;;;;;;9.10;6.55;;;;;;;8.53;85.44;100371.44;1802457;78;21556;-70
2022/05/19 02:14:29;;;;;;;14.63;6.85;;;;;;;8.55;85.40;100371.20;1788018;79;21020;-66
2022/05/19 02:16:55;;;;;;;8.55;6.45;;;;;;;8.55;85.41;100375.22;1765708;78;21555;-66
2022/05/19 02:19:25;;;;;;;8.95;7.47;;;;;;;8.55;85.31;100374.70;1757101;81;21068;-66
2022/05/19 02:21:52;;;;;;;7.58;5.80;;;;;;;8.53;85.19;100378.14;1758061;80;20935;-68
2022/05/19 02:24:22;;;;;;;10.43;6.28;;;;;;;8.52;85.18;100375.67;1757219;81;20990;-68
2022/05/19 02:26:50;;;;;;;11.50;6.30;;;;;;;8.53;85.15;100374.64;1798122;78;21023;-66
2022/05/19 02:29:22;;;;;;;10.18;6.20;;;;;;;8.52;85.13;100372.98;1809478;78;21036;-67
2022/05/19 02:31:50;;;;;;;9.85;5.83;;;;;;;8.53;85.05;100374.12;1788313;80;21083;-67
2022/05/19 02:34:16;;;;;;;9.05;6.53;;;;;;;8.54;84.95;100379.75;1788247;79;21035;-67
2022/05/19 02:36:43;;;;;;;7.15;5.50;;;;;;;8.55;84.83;100381.92;1806392;78;21442;-67
2022/05/19 02:39:09;;;;;;;12.58;6.22;;;;;;;8.54;84.73;100386.46;1820838;78;20984;-68
2022/05/19 02:41:36;;;;;;;8.08;5.60;;;;;;;8.53;84.69;100386.19;1807440;78;20894;-68
2022/05/19 02:44:03;;;;;;;6.72;5.72;;;;;;;8.55;84.69;100388.63;1778614;80;22196;-68
2022/05/19 02:46:30;;;;;;;13.22;5.70;;;;;;;8.56;84.66;100391.61;1787848;78;21504;-68
2022/05/19 02:48:59;;;;;;;10.40;5.45;;;;;;;8.57;84.62;100396.77;1820925;78;20947;-67
2022/05/19 02:51:25;;;;;;;9.60;5.95;;;;;;;8.59;84.52;100400.55;1808473;78;21032;-68
2022/05/19 02:53:54;;;;;;;8.63;5.03;;;;;;;8.60;84.47;100400.34;1781334;80;21024;-66
2022/05/19 02:56:20;;;;;;;7.95;5.00;;;;;;;8.59;84.46;100400.55;1780468;80;21106;-66
2022/05/19 02:58:47;;;;;;;5.92;5.12;;;;;;;8.60;84.57;100402.20;1781228;80;21541;-71
2022/05/19 03:01:14;;;;;;;9.85;5.58;;;;;;;8.61;84.58;100403.33;1775834;80;21008;-66
2022/05/19 03:03:40;;;;;;;8.68;5.12;;;;;;;8.63;84.54;100402.57;1750430;81;21017;-67
2022/05/19 03:06:07;;;;;;;9.80;5.53;;;;;;;8.67;84.41;100410.50;1757352;80;21033;-66
2022/05/19 03:08:33;;;;;;;7.62;5.08;;;;;;;8.70;84.31;100403.86;1750544;81;21132;-66
2022/05/19 03:11:00;;;;;;;6.08;5.20;;;;;;;8.71;84.21;100409.53;1757514;80;21490;-69
2022/05/19 03:13:28;;;;;;;9.15;5.50;;;;;;;8.73;84.14;100414.96;1781320;80;21560;-66
2022/05/19 03:15:54;;;;;;;7.05;5.15;;;;;;;8.77;84.10;100408.66;1767558;80;21036;-68
2022/05/19 03:18:21;;;;;;;10.28;6.28;;;;;;;8.81;84.03;100415.73;1772006;80;21014;-68
2022/05/19 03:20:47;;;;;;;10.13;6.15;;;;;;;8.85;83.90;100410.23;1779078;80;21820;-68
2022/05/19 03:23:14;;;;;;;9.08;7.20;;;;;;;8.87;83.78;100416.20;1750333;81;21064;-67
2022/05/19 03:25:41;;;;;;;10.50;6.45;;;;;;;8.89;83.72;100414.10;1753123;80;20925;-70
2022/05/19 03:28:14;;;;;;;11.88;6.25;;;;;;;8.90;83.66;100410.39;1780917;80;20991;-67
2022/05/19 03:30:41;;;;;;;12.78;7.70;;;;;;;8.93;83.61;100405.91;1781705;80;21559;-67
2022/05/19 03:33:08;;;;;;;12.60;6.72;;;;;;;8.97;83.55;100406.59;1773588;80;21121;-67
2022/05/19 03:35:34;;;;;;;9.43;7.15;;;;;;;9.04;83.38;100410.55;1749401;80;20972;-67
2022/05/19 03:38:01;;;;;;;12.03;7.05;;;;;;;9.09;83.25;100409.37;1781397;80;21023;-67
2022/05/19 03:40:28;;;;;;;10.40;7.53;;;;;;;9.15;83.04;100415.20;1781380;80;21027;-67
2022/05/19 03:42:54;;;;;;;13.60;7.83;;;;;;;9.19;82.60;100427.13;1781010;80;21607;-68
2022/05/19 03:45:21;;;;;;;22.05;9.45;;;;;;;9.23;82.24;100415.41;1773717;80;21057;-67
2022/05/19 03:47:48;;;;;;;13.18;7.35;;;;;;;9.28;81.83;100424.44;1780287;80;20953;-67
2022/05/19 03:50:14;;;;;;;16.52;9.15;;;;;;;9.33;81.75;100423.25;1780952;80;21020;-68
2022/05/19 03:52:43;;;;;;;17.10;9.08;;;;;;;9.41;81.63;100430.17;1750399;80;20983;-67
2022/05/19 03:55:12;;;;;;;10.05;7.53;;;;;;;9.47;81.32;100426.08;1737811;82;20971;-66
2022/05/19 03:57:40;;;;;;;15.10;8.55;;;;;;;9.52;81.13;100432.94;1790717;79;21008;-67
2022/05/19 04:00:08;;;;;;;15.55;8.25;;;;;;;9.57;80.76;100433.61;1779127;79;21509;-66
2022/05/19 04:02:39;;;;;;;15.50;9.45;;;;;;;9.62;80.08;100435.09;1699655;83;20934;-68
2022/05/19 04:05:07;;;;;;;19.62;10.80;;;;;;;9.67;79.51;100440.61;1684911;85;21060;-67
2022/05/19 04:07:34;;;;;;;18.40;10.58;;;;;;;9.73;79.56;100438.90;1674139;83;21031;-66
2022/05/19 04:10:00;;;;;;;20.85;11.20;;;;;;;9.79;79.35;100429.91;1692800;83;21110;-65
2022/05/19 04:12:28;;;;;;;15.80;9.15;;;;;;;9.85;78.66;100437.90;1689064;84;20965;-67
2022/05/19 04:14:55;;;;;;;17.35;8.05;;;;;;;9.93;78.11;100438.09;1689175;83;21069;-67
2022/05/19 04:17:21;;;;;;;13.80;8.48;;;;;;;10.00;77.28;100440.19;1728350;82;20952;-67
2022/05/19 04:19:48;;;;;;;12.20;9.40;;;;;;;10.05;76.48;100453.24;1713489;82;21037;-67
2022/05/19 04:22:14;;;;;;;15.70;7.53;;;;;;;10.13;76.39;100455.30;1689195;85;21243;-68
2022/05/19 04:24:41;;;;;;;15.60;8.68;;;;;;;10.17;76.23;100445.23;1689291;83;21055;-66
2022/05/19 04:27:07;;;;;;;14.07;7.78;;;;;;;10.24;76.16;100461.28;1709020;83;20944;-67
2022/05/19 04:29:34;;;;;;;12.37;7.97;;;;;;;10.31;75.82;100453.95;1688666;82;21003;-67
2022/05/19 04:32:00;;;;;;;16.37;8.10;;;;;;;10.40;75.45;100448.54;1698137;83;21026;-68
2022/05/19 04:34:26;;;;;;;14.95;9.45;;;;;;;10.48;74.51;100452.23;1717590;83;22249;-67
2022/05/19 04:36:56;;;;;;;17.10;10.72;;;;;;;10.52;73.56;100454.75;1723849;82;21023;-67
2022/05/19 04:39:22;;;;;;;13.75;9.50;;;;;;;10.58;73.76;100450.33;1705144;83;21094;-67
2022/05/19 04:41:49;;;;;;;13.83;8.95;;;;;;;10.63;73.75;100449.11;1700855;83;21014;-67
2022/05/19 04:44:18;;;;;;;13.25;10.53;;;;;;;10.68;73.25;100460.00;1714572;82;21084;-66
2022/05/19 04:46:45;;;;;;;17.85;8.90;;;;;;;10.72;73.35;100457.13;1701622;83;21587;-68
2022/05/19 04:49:11;;;;;;;14.47;7.90;;;;;;;10.76;73.39;100455.61;1716197;82;20974;-67
2022/05/19 04:51:39;;;;;;;10.58;7.87;;;;;;;10.82;73.08;100462.24;1691920;82;20928;-67
2022/05/19 04:54:05;;;;;;;12.93;7.53;;;;;;;10.88;72.79;100456.45;1781494;80;21073;-69
2022/05/19 04:56:34;;;;;;;16.77;10.05;;;;;;;10.98;72.54;100463.95;1760403;79;21028;-68
2022/05/19 04:59:00;;;;;;;12.98;8.08;;;;;;;11.07;72.53;100466.59;1750570;82;21860;-67
2022/05/19 05:01:28;;;;;;;15.95;10.05;;;;;;;11.16;72.40;100470.56;1751946;80;20982;-69
2022/05/19 05:03:55;;;;;;;17.15;9.83;;;;;;;11.24;71.94;100467.51;1778638;80;21594;-69
2022/05/19 05:06:23;;;;;;;18.95;10.03;;;;;;;11.30;71.79;100465.23;1778837;80;20945;-67
2022/05/19 05:08:49;;;;;;;16.07;9.00;;;;;;;11.37;71.88;100469.42;1781507;80;21028;-67
2022/05/19 05:11:16;;;;;;;19.52;10.35;;;;;;;11.43;71.50;100466.33;1781480;80;21030;-67
2022/05/19 05:13:43;;;;;;;16.10;9.88;;;;;;;11.49;71.41;100465.38;1775806;80;21471;-66
2022/05/19 05:16:09;;;;;;;17.12;9.98;;;;;;;11.54;70.45;100454.72;1766632;79;20988;-67
2022/05/19 05:18:36;;;;;;;16.42;10.70;;;;;;;11.60;70.42;100458.34;1813661;79;20997;-68
2022/05/19 05:21:05;;;;;;;18.42;10.10;;;;;;;11.66;70.56;100458.19;1794908;78;21016;-67
2022/05/19 05:23:32;;;;;;;19.05;9.50;;;;;;;11.71;70.10;100453.44;1750527;81;21075;-68
2022/05/19 05:26:00;;;;;;;20.52;9.70;;;;;;;11.77;69.89;100457.91;1751347;80;20965;-67
2022/05/19 05:28:27;;;;;;;16.85;8.75;;;;;;;11.83;69.71;100465.05;1781675;80;21581;-68
2022/05/19 05:30:53;;;;;;;14.18;8.65;;;;;;;11.90;69.22;100467.59;1781544;80;21085;-66
2022/05/19 05:33:19;;;;;;;14.23;8.78;;;;;;;11.97;68.66;100456.97;1783721;79;21529;-66
2022/05/19 05:35:46;;;;;;;16.52;9.15;;;;;;;12.06;68.50;100465.48;1796726;78;20988;-66
2022/05/19 05:38:13;;;;;;;18.52;10.35;;;;;;;12.15;68.24;100474.83;1745649;80;21078;-68
2022/05/19 05:40:40;;;;;;;14.73;8.88;;;;;;;12.24;68.00;100469.33;1750680;81;21518;-67
2022/05/19 05:43:14;;;;;;;18.25;10.85;;;;;;;12.31;67.60;100476.77;1750657;82;21504;-64
2022/05/19 05:45:41;;;;;;;17.77;9.25;;;;;;;12.38;67.36;100471.20;1751316;79;21537;-65
2022/05/19 05:48:08;;;;;;;13.80;9.35;;;;;;;12.44;67.06;100475.11;1812105;78;21032;-65
2022/05/19 05:50:35;;;;;;;14.85;8.95;;;;;;;12.51;66.69;100470.92;1809179;79;21012;-67
2022/05/19 05:53:02;;;;;;;13.00;8.83;;;;;;;12.55;65.69;100472.06;1756872;80;21071;-70
2022/05/19 05:55:29;;;;;;;16.62;9.08;;;;;;;12.60;64.98;100466.23;1759378;80;21574;-68
2022/05/19 05:57:57;;;;;;;19.92;10.48;;;;;;;12.67;65.27;100478.20;1780671;80;21014;-66
2022/05/19 06:00:26;;;;;;;18.25;9.48;;;;;;;12.74;65.12;100468.60;1781568;80;21674;-67
2022/05/19 06:02:53;;;;;;;15.55;9.55;;;;;;;12.79;65.06;100473.55;1770211;80;20985;-68
2022/05/19 06:05:20;;;;;;;15.80;9.15;;;;;;;12.85;64.30;100477.16;1750479;81;21525;-65
2022/05/19 06:07:48;;;;;;;17.92;9.03;;;;;;;12.91;64.00;100484.25;1771015;80;20894;-68
2022/05/19 06:10:14;;;;;;;17.92;10.40;;;;;;;12.97;63.80;100488.68;1765147;80;21052;-67
2022/05/19 06:12:41;;;;;;;19.98;9.65;;;;;;;13.03;63.99;100488.53;1781046;80;21144;-66
2022/05/19 06:15:10;;;;;;;17.65;9.40;;;;;;;13.12;64.12;100490.84;1749869;80;21536;-67
2022/05/19 06:17:39;;;;;;;17.52;10.18;;;;;;;13.18;64.12;100490.68;1750356;80;21015;-67
2022/05/19 06:20:10;;;;;;;18.52;9.90;;;;;;;13.25;64.21;100490.48;1750665;81;21518;-67
2022/05/19 06:22:41;;;;;;;15.20;8.98;;;;;;;13.30;62.31;100481.11;1756205;80;21490;-65
2022/05/19 06:25:07;;;;;;;20.17;10.18;;;;;;;13.38;61.67;100483.41;1776750;80;21127;-66
2022/05/19 06:27:36;;;;;;;18.32;9.65;;;;;;;13.44;62.15;100497.25;1781253;80;21005;-68
2022/05/19 06:30:07;;;;;;;20.15;8.75;;;;;;;13.53;62.53;100493.05;1781407;80;21060;-67
2022/05/19 06:32:33;;;;;;;14.87;9.00;;;;;;;13.61;61.50;100488.59;1767181;80;21025;-69
2022/05/19 06:35:00;;;;;;;21.52;9.43;;;;;;;13.71;61.29;100500.07;1764307;80;21040;-67
2022/05/19 06:37:26;;;;;;;15.13;8.78;;;;;;;13.79;61.60;100499.62;1751891;80;21099;-67
2022/05/19 06:39:53;;;;;;;14.00;8.70;;;;;;;13.86;60.92;100498.36;1776523;80;21043;-67
2022/05/19 06:42:19;;;;;;;19.07;10.43;;;;;;;13.94;60.16;100503.88;1771870;80;20960;-66
2022/05/19 06:44:46;;;;;;;13.85;8.05;;;;;;;13.99;59.81;100501.23;1773020;80;21080;-65
2022/05/19 06:47:16;;;;;;;11.40;7.10;;;;;;;14.05;59.14;100497.53;1750378;82;21013;-68
2022/05/19 06:49:51;;;;;;;11.35;7.53;;;;;;;14.11;58.77;100495.67;1750449;81;21095;-67
2022/05/19 06:52:22;;;;;;;23.10;11.20;;;;;;;14.18;58.70;100494.95;1753256;80;21083;-69
2022/05/19 06:54:51;;;;;;;15.00;7.85;;;;;;;14.23;58.96;100490.95;1777277;79;21012;-65
2022/05/19 06:57:20;;;;;;;19.55;9.25;;;;;;;14.30;58.53;100496.97;1781265;80;21053;-66
2022/05/19 06:59:47;;;;;;;17.23;9.65;;;;;;;14.36;57.59;100492.75;1781361;80;21047;-65
2022/05/19 07:02:16;;;;;;;21.95;9.38;;;;;;;14.44;57.58;100499.59;1781116;80;21004;-67
2022/05/19 07:04:44;;;;;;;15.03;9.40;;;;;;;14.51;57.53;100499.39;1753632;80;21051;-66
2022/05/19 07:07:11;;;;;;;14.25;7.95;;;;;;;14.57;56.59;100495.14;1759406;80;21595;-65
2022/05/19 07:09:39;;;;;;;12.18;7.22;;;;;;;14.63;55.58;100493.27;1750231;81;21526;-69
2022/05/19 07:12:10;;;;;;;12.30;7.83;;;;;;;14.69;55.33;100497.66;1770904;80;21072;-67
2022/05/19 07:14:37;;;;;;;9.78;6.83;;;;;;;14.75;53.65;100489.34;1780740;80;21188;-67
2022/05/19 07:17:05;;;;;;;15.90;8.35;;;;;;;14.83;52.18;100498.34;1781963;80;21556;-67
2022/05/19 07:22:19;;;;;;;7.35;5.78;;;;;;;14.97;51.17;100481.11;1760287;80;21201;-71
2022/05/19 07:24:46;;;;;;;13.32;7.17;;;;;;;15.02;49.59;100489.27;1781015;80;20990;-68
2022/05/19 07:27:13;;;;;;;14.38;8.65;;;;;;;15.10;50.72;100494.77;1773267;80;21065;-67
2022/05/19 07:29:39;;;;;;;15.13;7.92;;;;;;;15.16;51.67;100493.17;1750416;81;21084;-67
2022/05/19 07:32:08;;;;;;;16.32;8.70;;;;;;;15.21;51.19;100501.87;1750622;80;21042;-71
2022/05/19 07:34:36;;;;;;;10.25;5.90;;;;;;;15.27;51.16;100501.66;1757823;80;21115;-66
2022/05/19 07:37:04;;;;;;;13.88;6.47;;;;;;;15.35;49.10;100494.92;1780445;80;20949;-68
2022/05/19 07:39:31;;;;;;;14.75;8.10;;;;;;;15.40;49.23;100488.72;1778727;80;21012;-67
2022/05/19 07:41:58;;;;;;;10.63;5.60;;;;;;;15.45;48.83;100484.14;1781363;80;20993;-67
2022/05/19 07:44:26;;;;;;;7.05;5.10;;;;;;;15.50;47.42;100488.24;1760431;80;21595;-67
2022/05/19 07:46:53;;;;;;;15.05;5.25;;;;;;;15.56;47.60;100476.38;1765017;80;21036;-68
2022/05/19 07:49:20;;;;;;;6.85;5.17;;;;;;;15.59;47.36;100476.38;1775297;80;21052;-66
2022/05/19 07:51:48;;;;;;;8.38;3.52;;;;;;;15.62;47.11;100473.16;1759940;80;21006;-68
2022/05/19 07:54:18;;;;;;;6.70;4.42;;;;;;;15.68;44.96;100472.91;1779396;80;21116;-67
2022/05/19 07:56:44;;;;;;;5.33;3.47;;;;;;;15.75;46.04;100465.08;1771181;80;21596;-66
2022/05/19 07:59:11;;;;;;;5.25;3.42;;;;;;;15.83;45.09;100459.95;1761910;80;21053;-67
2022/05/19 08:01:40;;;;;;;7.87;2.92;;;;;;;15.87;44.04;100447.52;1750388;81;21056;-68
2022/05/19 08:04:08;;;;;;;4.30;2.85;;;;;;;15.91;43.56;100461.35;1769641;80;21487;-67
2022/05/19 08:06:35;;;;;;;2.20;2.00;;;;;;;16.00;43.28;100460.57;1780893;80;21573;-67
2022/05/19 08:10:20;;;;;;;4.03;2.55;;;;;;;16.11;42.85;100455.99;1750553;81;21554;-67
2022/05/19 08:11:33;;;;;;;4.67;2.33;;;;;;;16.13;42.24;100472.81;1746934;82;21483;-70
2022/05/19 08:16:45;;;;;;;3.67;2.60;;;;;;;16.16;43.37;100450.58;1772133;80;21354;-70
2022/05/19 08:19:12;;;;;;;4.17;2.65;;;;;;;16.14;42.88;100461.70;1749044;80;20921;-69
2022/05/19 08:21:38;;;;;;;12.70;2.65;;;;;;;16.12;42.99;100452.17;1753885;80;21061;-69
2022/05/19 08:24:06;;;;;;;5.72;2.12;;;;;;;16.17;43.99;100482.05;1781062;80;21001;-68
2022/05/19 08:26:34;;;;;;;5.20;2.05;;;;;;;16.18;44.06;100467.39;1772481;79;21046;-71
2022/05/19 08:29:00;;;;;;;2.40;1.85;;;;;;;16.22;44.25;100458.17;1777365;80;21196;-70
2022/05/19 08:31:30;;;;;;;4.55;1.30;;;;;;;16.29;41.88;100450.05;1756980;80;20952;-71
2022/05/19 08:33:58;;;;;;;5.70;2.42;;;;;;;16.39;42.21;100451.44;1751489;80;21066;-71
2022/05/19 08:36:26;;;;;;;3.22;1.57;;;;;;;16.47;42.46;100452.79;1765298;80;21084;-70
2022/05/19 08:38:54;;;;;;;1.95;1.67;;;;;;;16.55;42.68;100450.34;1781344;80;21010;-69
2022/05/19 08:41:31;;;;;;;3.72;2.02;;;;;;;16.62;42.30;100446.59;1781268;80;21126;-70
2022/05/19 08:44:09;;;;;;;2.98;1.65;;;;;;;16.66;42.44;100442.23;1775042;80;21534;-69
2022/05/19 08:46:39;;;;;;;1.35;1.10;;;;;;;16.71;42.37;100424.58;1768545;80;21038;-71
2022/05/19 08:49:25;;;;;;;2.20;1.52;;;;;;;16.80;42.46;100442.78;1780757;80;21054;-69
2022/05/19 08:52:03;;;;;;;2.52;1.92;;;;;;;16.87;41.95;100435.19;1768459;80;21008;-66
2022/05/19 08:54:31;;;;;;;2.22;1.60;;;;;;;16.92;41.95;100437.08;1771284;80;21375;-73
2022/05/19 08:57:05;;;;;;;1.77;1.35;;;;;;;16.97;41.68;100454.20;1780075;80;20997;-69
2022/05/19 08:59:57;;;;;;;1.62;1.40;;;;;;;17.06;41.42;100455.81;1772092;80;21540;-70
2022/05/19 09:02:29;;;;;;;1.50;1.27;;;;;;;17.12;41.11;100445.19;1781459;80;21017;-66
2022/05/19 09:05:26;;;;;;;2.02;1.30;;;;;;;17.15;41.21;100447.37;1745393;80;21119;-65
2022/05/19 09:08:30;;;;;;;3.77;2.52;;;;;;;17.16;41.28;100432.70;1781326;80;21075;-66
2022/05/19 09:11:03;;;;;;;;;;;;;;;17.19;41.16;100440.84;1778866;80;21640;-69
2022/05/19 09:13:56;;;;;;;1.98;1.62;;;;;;;17.19;41.16;100434.04;1778882;80;20535;-67
2022/05/19 09:16:32;;;;;;;3.05;1.55;;;;;;;17.21;41.39;100431.33;1762185;80;21225;-65
2022/05/19 09:19:20;;;;;;;2.00;1.50;;;;;;;17.27;41.21;100441.63;1768268;80;21108;-64
2022/05/19 09:21:50;;;;;;;1.82;1.40;;;;;;;17.31;41.04;100455.75;1759016;80;21044;-66
2022/05/19 09:24:16;;;;;;;4.78;1.70;;;;;;;17.32;41.24;100464.73;1780300;80;20996;-68
2022/05/19 09:26:56;;;;;;;4.28;1.90;;;;;;;17.32;40.82;100454.67;1781435;80;21518;-67
2022/05/19 09:29:43;;;;;;;2.58;1.98;;;;;;;17.31;40.28;100460.40;1759011;80;21161;-65
2022/05/19 09:32:20;;;;;;;3.95;1.65;;;;;;;17.26;40.18;100428.60;1781128;80;20993;-66
2022/05/19 09:34:50;;;;;;;3.25;1.82;;;;;;;17.27;39.67;100438.91;1728461;82;21355;-66
2022/05/19 09:37:43;;;;;;;4.58;1.55;;;;;;;17.29;39.86;100425.86;1750711;82;20999;-66
2022/05/19 09:40:23;;;;;;;3.00;1.30;;;;;;;17.35;40.38;100426.94;1755535;80;21066;-68
2022/05/19 09:43:06;;;;;;;2.45;1.30;;;;;;;17.47;39.65;100447.55;1780662;80;21073;-66
2022/05/19 09:45:45;;;;;;;1.25;1.12;;;;;;;17.49;38.74;100429.06;1764245;80;21076;-67
2022/05/19 09:48:12;;;;;;;3.33;1.45;;;;;;;17.53;39.34;100419.25;1751765;80;21099;-69
2022/05/19 09:50:47;;;;;;;3.52;1.47;;;;;;;17.61;39.66;100424.14;1750655;80;20992;-65
2022/05/19 09:53:18;;;;;;;3.90;1.35;;;;;;;17.69;39.61;100420.33;1764593;80;21023;-67
2022/05/19 09:55:44;;;;;;;3.83;2.12;;;;;;;17.80;39.63;100400.11;1782871;80;21050;-67
2022/05/19 09:58:14;;;;;;;2.65;1.27;;;;;;;17.93;39.44;100405.51;1780225;80;21514;-70
2022/05/19 10:00:53;;;;;;;1.92;1.50;;;;;;;18.04;39.33;100413.86;1788093;80;21864;-65
2022/05/19 10:03:43;;;;;;;1.95;1.50;;;;;;;18.14;38.90;100402.91;1777827;80;20932;-67
2022/05/19 10:06:23;;;;;;;3.33;1.17;;;;;;;18.18;38.73;100404.52;1778213;80;21102;-67
2022/05/19 10:09:10;;;;;;;1.87;1.50;;;;;;;18.30;37.78;100430.86;1763753;80;21451;-65
2022/05/19 10:11:54;;;;;;;1.75;1.57;;;;;;;18.40;37.70;100415.81;1758299;80;20999;-68
2022/05/19 10:14:30;;;;;;;1.70;1.20;;;;;;;18.48;37.23;100421.19;1790317;78;21276;-67
2022/05/19 10:17:13;;;;;;;3.62;1.47;;;;;;;18.51;37.40;100399.63;1787478;78;20944;-69
2022/05/19 10:20:08;;;;;;;2.98;1.90;;;;;;;18.56;37.55;100396.11;1795052;78;21509;-67
2022/05/19 10:23:03;;;;;;;3.52;1.60;;;;;;;18.61;37.01;100388.69;1777675;80;21064;-68
2022/05/19 10:25:41;;;;;;;2.22;1.57;;;;;;;18.63;37.46;100376.15;1785285;80;21522;-68
2022/05/19 10:31:24;;;;;;;4.92;1.37;;;;;;;18.75;36.54;100415.30;1778435;80;21543;-69
2022/05/19 10:34:08;;;;;;;3.42;2.10;;;;;;;18.76;36.21;100392.38;1756949;81;20880;-68
2022/05/19 10:36:44;;;;;;;1.65;1.55;;;;;;;18.79;36.32;100400.81;1763360;80;21036;-68
2022/05/19 10:40:05;;;;;;;1.75;1.40;;;;;;;18.87;36.01;100377.02;1759697;80;22503;-68
2022/05/19 10:43:06;;;;;;;1.55;1.32;;;;;;;18.89;36.06;100387.64;1788282;80;21250;-69
2022/05/19 10:45:36;;;;;;;2.27;1.55;;;;;;;18.95;35.10;100387.28;1787711;80;21537;-68
2022/05/19 10:49:01;;;;;;;2.10;1.80;;;;;;;19.02;35.21;100378.77;1791495;78;21490;-69
2022/05/19 10:52:02;;;;;;;2.20;1.50;;;;;;;19.05;34.96;100358.55;1774616;80;28659;-67
2022/05/19 10:55:03;;;;;;;1.60;1.40;;;;;;;19.09;34.81;100373.77;1778133;80;21060;-70
2022/05/19 10:58:04;;;;;;;2.58;1.80;;;;;;;19.12;34.68;100378.12;1769584;80;21135;-68
2022/05/19 11:00:51;;;;;;;2.98;1.60;;;;;;;19.14;33.29;100370.44;1788262;80;20956;-70
2022/05/19 11:04:15;;;;;;;5.80;2.12;;;;;;;19.18;33.74;100386.25;1783688;78;21001;-67
2022/05/19 11:07:15;;;;;;;3.98;2.12;;;;;;;19.28;33.87;100343.27;1772744;78;21041;-70
2022/05/19 11:09:58;;;;;;;3.05;2.58;;;;;;;19.41;33.66;100352.14;1752238;80;21061;-69
2022/05/19 11:12:49;;;;;;;9.15;3.65;;;;;;;19.50;33.87;100348.23;1769580;78;21207;-69
2022/05/19 11:15:39;;;;;;;7.05;3.62;;;;;;;19.65;33.90;100369.05;1787666;78;21718;-67
2022/05/19 11:18:29;;;;;;;8.75;5.58;;;;;;;19.79;32.64;100337.20;1779007;78;21043;-68
2022/05/19 11:21:16;;;;;;;10.32;5.55;;;;;;;19.80;33.17;100348.38;1784159;78;21571;-67
2022/05/19 11:24:09;;;;;;;7.30;5.45;;;;;;;19.82;33.11;100334.68;1733709;78;21086;-68
2022/05/19 11:26:56;;;;;;;12.35;6.28;;;;;;;19.91;32.99;100345.19;1753901;80;21571;-68
2022/05/19 11:29:51;;;;;;;7.42;4.22;;;;;;;20.02;32.29;100343.94;1782742;80;21027;-64
2022/05/19 11:32:23;;;;;;;8.70;4.40;;;;;;;20.06;31.26;100321.48;1775717;80;20984;-68
2022/05/19 11:34:54;;;;;;;7.40;3.33;;;;;;;20.11;31.36;100315.95;1767055;80;21604;-67
2022/05/19 11:37:35;;;;;;;10.68;3.50;;;;;;;20.17;31.28;100363.94;1757586;81;21003;-66
2022/05/19 11:40:20;;;;;;;3.95;2.77;;;;;;;20.20;30.77;100335.45;1739022;81;21128;-66
2022/05/19 11:43:11;;;;;;;7.87;3.95;;;;;;;20.24;30.28;100317.94;1751118;81;21626;-66
2022/05/19 11:45:43;;;;;;;11.73;4.28;;;;;;;20.21;30.59;100324.80;1765076;78;21111;-71
2022/05/19 11:55:19;;;;;;;10.63;4.15;;;;;;;20.18;32.10;100331.42;1768528;80;21069;-69
2022/05/19 11:58:07;;;;;;;8.73;3.70;;;;;;;20.18;31.94;100318.58;1754138;81;21088;-71
2022/05/19 12:01:06;;;;;;;7.58;3.58;;;;;;;20.17;31.23;100296.45;1760065;80;20953;-68
2022/05/19 12:03:56;;;;;;;6.97;3.25;;;;;;;20.15;31.50;100285.01;1783729;78;21521;-67
2022/05/19 12:06:33;;;;;;;7.92;3.60;;;;;;;20.21;31.27;100294.75;1777399;80;21112;-69
2022/05/19 12:09:08;;;;;;;9.40;2.87;;;;;;;20.36;31.59;100289.06;1770915;80;21490;-67